createdAt,value
2023-04-15T00:01:33.980Z,99997.59
2023-04-15T00:04:03.071Z,99989.66
2023-04-15T00:06:31.108Z,99992.31
2023-04-15T00:08:59.083Z,99991.41
2023-04-15T00:11:26.893Z,99984.41
2023-04-15T00:13:54.503Z,99984.41
2023-04-15T00:16:22.265Z,99971.22
2023-04-15T00:18:49.906Z,99983.50
2023-04-15T00:21:19.014Z,99965.94
2023-04-15T00:23:49.788Z,99973.84
2023-04-15T00:26:17.463Z,99971.22
2023-04-15T00:28:45.710Z,99983.50
2023-04-15T00:31:13.367Z,99976.47
2023-04-15T00:33:41.253Z,99979.97
2023-04-15T00:36:09.991Z,99972.97
2023-04-15T00:38:40.263Z,99983.50
2023-04-15T00:41:08.014Z,99972.97
2023-04-15T00:43:35.740Z,99978.22
2023-04-15T00:46:05.699Z,99975.56
2023-04-15T00:48:33.496Z,99975.59
2023-04-15T00:51:01.161Z,99975.59
2023-04-15T00:53:28.792Z,99964.16
2023-04-15T00:55:57.756Z,99961.50
2023-04-15T00:58:26.338Z,99959.78
2023-04-15T01:00:54.446Z,99956.22
2023-04-15T01:03:22.783Z,99957.13
2023-04-15T01:05:51.078Z,99960.66
2023-04-15T01:08:18.770Z,99953.59
2023-04-15T01:10:46.586Z,99943.06
2023-04-15T01:13:15.573Z,99949.22
2023-04-15T01:15:43.633Z,99941.31
2023-04-15T01:18:11.260Z,99936.03
2023-04-15T01:20:39.614Z,99936.91
2023-04-15T01:23:07.471Z,99936.03
2023-04-15T01:25:37.098Z,99939.53
2023-04-15T01:28:05.125Z,99941.28
2023-04-15T01:30:35.678Z,99938.66
2023-04-15T01:33:03.706Z,99936.03
2023-04-15T01:35:32.162Z,99943.06
2023-04-15T01:38:06.131Z,99940.41
2023-04-15T01:40:33.885Z,99939.53
2023-04-15T01:43:03.832Z,99938.66
2023-04-15T01:45:31.721Z,99930.75
2023-04-15T01:47:59.353Z,99929.00
2023-04-15T01:50:27.185Z,99929.84
2023-04-15T01:52:56.370Z,99929.00
2023-04-15T01:55:25.494Z,99931.63
2023-04-15T01:57:53.100Z,99926.34
2023-04-15T02:00:23.475Z,99921.06
2023-04-15T02:02:53.140Z,99921.06
2023-04-15T02:05:20.868Z,99916.66
2023-04-15T02:07:49.400Z,99919.31
2023-04-15T02:10:17.235Z,99919.28
2023-04-15T02:12:44.889Z,99914.03
2023-04-15T02:15:12.529Z,99909.63
2023-04-15T02:17:45.801Z,99913.16
2023-04-15T02:20:15.934Z,99902.59
2023-04-15T02:22:43.564Z,99907.00
2023-04-15T02:25:11.676Z,99904.34
2023-04-15T02:27:39.285Z,99901.72
2023-04-15T02:30:08.417Z,99899.06
2023-04-15T02:32:38.015Z,99899.09
2023-04-15T02:35:08.814Z,99896.44
2023-04-15T02:37:41.663Z,99903.47
2023-04-15T02:40:12.168Z,99897.31
2023-04-15T02:42:40.254Z,99907.00
2023-04-15T02:45:12.065Z,99892.91
2023-04-15T02:47:41.552Z,99898.19
2023-04-15T02:50:13.190Z,99892.91
2023-04-15T02:52:42.836Z,99891.19
2023-04-15T02:55:11.133Z,99889.41
2023-04-15T02:57:39.234Z,99894.69
2023-04-15T03:00:11.651Z,99884.13
2023-04-15T03:02:43.147Z,99888.53
2023-04-15T03:05:14.870Z,99880.63
2023-04-15T03:07:48.824Z,99885.00
2023-04-15T03:10:16.529Z,99892.06
2023-04-15T03:12:44.199Z,99881.50
2023-04-15T03:15:16.761Z,99887.66
2023-04-15T03:17:49.360Z,99885.03
2023-04-15T03:20:18.745Z,99885.91
2023-04-15T03:22:46.457Z,99881.50
2023-04-15T03:25:14.087Z,99885.91
2023-04-15T03:27:42.774Z,99881.50
2023-04-15T03:30:11.723Z,99888.56
2023-04-15T03:32:40.294Z,99885.06
2023-04-15T03:35:09.644Z,99888.56
2023-04-15T03:37:38.573Z,99883.28
2023-04-15T03:40:07.339Z,99881.53
2023-04-15T03:42:34.927Z,99878.03
2023-04-15T03:45:02.570Z,99885.94
2023-04-15T03:47:30.351Z,99884.16
2023-04-15T03:49:57.983Z,99883.31
2023-04-15T03:52:25.664Z,99884.16
2023-04-15T03:54:54.620Z,99875.38
2023-04-15T03:57:22.202Z,99879.75
2023-04-15T03:59:49.819Z,99889.44
2023-04-15T04:02:17.517Z,99880.63
2023-04-15T04:04:45.264Z,99879.78
2023-04-15T04:07:16.848Z,99874.50
2023-04-15T04:09:45.704Z,99881.56
2023-04-15T04:12:16.141Z,99879.78
2023-04-15T04:14:43.759Z,99875.38
2023-04-15T04:17:11.704Z,99876.28
2023-04-15T04:19:39.377Z,99880.66
2023-04-15T04:22:06.988Z,99878.00
2023-04-15T04:24:34.662Z,99883.28
2023-04-15T04:27:02.269Z,99881.56
2023-04-15T04:29:31.316Z,99874.50
2023-04-15T04:31:58.914Z,99885.94
2023-04-15T04:34:26.657Z,99875.38
2023-04-15T04:36:54.284Z,99877.16
2023-04-15T04:39:21.874Z,99878.91
2023-04-15T04:41:49.476Z,99877.16
2023-04-15T04:44:17.119Z,99875.41
2023-04-15T04:46:46.121Z,99882.44
2023-04-15T04:49:13.737Z,99885.94
2023-04-15T04:51:41.346Z,99893.00
2023-04-15T04:54:09.624Z,99896.50
2023-04-15T04:56:39.229Z,99886.81
2023-04-15T04:59:07.091Z,99893.88
2023-04-15T05:01:34.778Z,99892.97
2023-04-15T05:04:05.168Z,99897.38
2023-04-15T05:06:33.174Z,99898.25
2023-04-15T05:09:01.298Z,99891.25
2023-04-15T05:11:29.267Z,99900.88
2023-04-15T05:13:58.096Z,99894.75
2023-04-15T05:16:25.919Z,99892.13
2023-04-15T05:18:53.532Z,99899.13
2023-04-15T05:21:23.126Z,99897.41
2023-04-15T05:23:50.963Z,99892.13
2023-04-15T05:26:18.751Z,99898.28
2023-04-15T05:28:46.373Z,99900.00
2023-04-15T05:31:14.375Z,99896.50
2023-04-15T05:33:42.207Z,99898.28
2023-04-15T05:36:10.152Z,99898.28
2023-04-15T05:38:39.113Z,99903.56
2023-04-15T05:41:06.856Z,99905.28
2023-04-15T05:43:34.609Z,99905.31
2023-04-15T05:46:02.373Z,99906.19
2023-04-15T05:48:30.010Z,99904.44
2023-04-15T05:50:57.669Z,99907.94
2023-04-15T05:53:25.466Z,99908.84
2023-04-15T05:55:54.435Z,99908.81
2023-04-15T05:58:22.057Z,99911.47
2023-04-15T06:00:49.945Z,99909.72
2023-04-15T06:03:18.075Z,99910.59
2023-04-15T06:05:45.720Z,99906.19
2023-04-15T06:08:13.502Z,99907.97
2023-04-15T06:10:41.559Z,99915.84
2023-04-15T06:13:10.496Z,99909.72
2023-04-15T06:15:38.118Z,99910.59
2023-04-15T06:18:06.205Z,99917.66
2023-04-15T06:20:33.848Z,99910.59
2023-04-15T06:23:01.494Z,99901.81
2023-04-15T06:25:29.149Z,99908.84
2023-04-15T06:27:56.797Z,99914.13
2023-04-15T06:30:25.857Z,99907.97
2023-04-15T06:32:53.638Z,99915.00
2023-04-15T06:36:57.487Z,99909.72
2023-04-15T06:39:32.117Z,99917.63
2023-04-15T06:42:05.388Z,99913.22
2023-04-15T06:44:33.977Z,99907.94
2023-04-15T06:47:02.353Z,99919.38
2023-04-15T06:49:30.393Z,99922.94
2023-04-15T06:52:00.631Z,99923.81
2023-04-15T06:54:28.485Z,99924.69
2023-04-15T06:56:56.462Z,99927.31
2023-04-15T06:59:24.415Z,99925.56
2023-04-15T07:01:52.545Z,99929.97
2023-04-15T07:04:20.519Z,99932.59
2023-04-15T07:06:48.211Z,99929.94
2023-04-15T07:09:17.241Z,99934.34
2023-04-15T07:11:45.017Z,99941.38
2023-04-15T07:14:12.852Z,99936.09
2023-04-15T07:16:40.547Z,99932.59
2023-04-15T07:19:08.328Z,99942.25
2023-04-15T07:21:41.828Z,99935.25
2023-04-15T07:24:11.255Z,99929.06
2023-04-15T07:26:40.475Z,99930.84
2023-04-15T07:29:13.902Z,99936.13
2023-04-15T07:31:44.392Z,99934.34
2023-04-15T07:34:12.088Z,99930.81
2023-04-15T07:36:40.434Z,99941.38
2023-04-15T07:39:08.063Z,99939.59
2023-04-15T07:41:36.001Z,99947.53
2023-04-15T07:44:05.472Z,99944.00
2023-04-15T07:46:33.438Z,99944.00
2023-04-15T07:49:02.360Z,99943.13
2023-04-15T07:51:30.704Z,99937.84
2023-04-15T07:53:58.789Z,99944.84
2023-04-15T07:56:27.198Z,99941.34
2023-04-15T07:58:54.947Z,99938.66
2023-04-15T08:01:24.039Z,99944.81
2023-04-15T08:03:52.537Z,99951.00
2023-04-15T08:06:20.483Z,99946.59
2023-04-15T08:08:48.322Z,99956.25
2023-04-15T08:11:16.224Z,99950.06
2023-04-15T08:13:44.107Z,99955.34
2023-04-15T08:16:19.742Z,99957.97
2023-04-15T08:18:49.874Z,99963.22
2023-04-15T08:21:18.766Z,99963.22
2023-04-15T08:23:48.403Z,99970.28
2023-04-15T08:26:16.225Z,99972.88
2023-04-15T08:28:45.622Z,99973.75
2023-04-15T08:31:14.132Z,99971.09
2023-04-15T08:33:42.003Z,99975.50
2023-04-15T08:36:16.124Z,99973.72
2023-04-15T08:38:45.913Z,99964.00
2023-04-15T08:41:21.886Z,99966.63
2023-04-15T08:43:55.017Z,99956.00
2023-04-15T08:46:23.628Z,99974.50
2023-04-15T08:48:53.395Z,99972.72
2023-04-15T08:51:24.913Z,99982.44
2023-04-15T08:53:53.525Z,99982.44
2023-04-15T08:56:27.775Z,99974.44
2023-04-15T08:58:55.939Z,99978.88
2023-04-15T09:01:24.232Z,99981.50
2023-04-15T09:03:55.549Z,99986.75
2023-04-15T09:06:25.255Z,99988.53
2023-04-15T09:08:53.400Z,99985.88
2023-04-15T09:11:23.367Z,99990.25
2023-04-15T09:13:51.640Z,100003.47
2023-04-15T09:16:20.356Z,100006.09
2023-04-15T09:18:48.184Z,100015.78
2023-04-15T09:21:17.477Z,100013.13
2023-04-15T09:23:59.808Z,100001.66
2023-04-15T09:26:35.766Z,100006.91
2023-04-15T09:29:08.004Z,100013.03
2023-04-15T09:31:36.878Z,100008.66
2023-04-15T09:34:04.796Z,100014.81
2023-04-15T09:36:41.343Z,100020.97
2023-04-15T09:39:10.433Z,100021.81
2023-04-15T09:41:38.299Z,100025.31
2023-04-15T09:44:06.045Z,100028.84
2023-04-15T09:46:43.991Z,100024.44
2023-04-15T09:49:12.913Z,100027.03
2023-04-15T09:54:10.780Z,100029.66
2023-04-15T09:56:42.165Z,100030.50
2023-04-15T09:59:10.444Z,100030.50
2023-04-15T10:01:41.007Z,100034.91
2023-04-15T10:04:11.172Z,100042.78
2023-04-15T10:06:41.246Z,100035.75
2023-04-15T10:09:10.744Z,100037.47
2023-04-15T10:11:38.671Z,100044.53
2023-04-15T10:14:08.796Z,100037.44
2023-04-15T10:16:42.680Z,100031.22
2023-04-15T10:19:11.755Z,100037.41
2023-04-15T10:21:40.471Z,100046.22
2023-04-15T10:24:10.293Z,100041.78
2023-04-15T10:26:38.394Z,100051.47
2023-04-15T10:29:06.771Z,100049.72
2023-04-15T10:31:35.982Z,100047.00
2023-04-15T10:34:06.654Z,100050.56
2023-04-15T10:36:34.904Z,100052.28
2023-04-15T10:39:02.864Z,100049.63
2023-04-15T10:41:34.608Z,100055.75
2023-04-15T10:44:04.402Z,100053.13
2023-04-15T10:46:40.451Z,100047.81
2023-04-15T10:49:11.089Z,100053.97
2023-04-15T10:51:41.759Z,100061.06
2023-04-15T10:54:14.459Z,100061.06
2023-04-15T10:56:44.865Z,100063.69
2023-04-15T10:59:13.301Z,100053.97
2023-04-15T11:01:56.720Z,100055.72
2023-04-15T11:04:54.135Z,100055.72
2023-04-15T11:07:35.673Z,100062.75
2023-04-15T11:10:04.852Z,100061.88
2023-04-15T11:12:39.720Z,100071.56
2023-04-15T11:15:28.279Z,100069.81
2023-04-15T11:17:56.880Z,100066.25
2023-04-15T11:20:24.984Z,100066.25
2023-04-15T11:23:13.998Z,100068.03
2023-04-15T11:25:43.619Z,100078.63
2023-04-15T11:28:14.333Z,100073.31
2023-04-15T11:30:43.633Z,100078.59
2023-04-15T11:33:13.820Z,100075.03
2023-04-15T11:35:42.712Z,100080.34
2023-04-15T11:38:12.192Z,100083.88
2023-04-15T11:40:41.805Z,100087.41
2023-04-15T11:43:14.379Z,100088.28
2023-04-15T11:45:51.512Z,100090.97
2023-04-15T11:48:20.145Z,100088.31
2023-04-15T11:50:48.190Z,100094.53
2023-04-15T11:53:15.977Z,100096.28
2023-04-15T11:55:45.502Z,100098.06
2023-04-15T11:58:16.910Z,100100.69
2023-04-15T12:00:48.998Z,100106.00
2023-04-15T12:03:24.264Z,100101.56
2023-04-15T12:06:06.151Z,100105.97
2023-04-15T12:09:00.228Z,100112.16
2023-04-15T12:11:42.347Z,100113.94
2023-04-15T12:14:21.138Z,100116.59
2023-04-15T12:16:50.343Z,100116.63
2023-04-15T12:19:25.302Z,100123.69
2023-04-15T12:22:00.031Z,100122.78
2023-04-15T12:24:28.567Z,100129.88
2023-04-15T12:26:58.289Z,100133.44
2023-04-15T12:29:33.118Z,100136.97
2023-04-15T12:32:07.245Z,100146.69
2023-04-15T12:34:36.858Z,100151.09
2023-04-15T12:37:06.797Z,100155.53
2023-04-15T12:39:37.061Z,100154.66
2023-04-15T12:42:06.198Z,100157.31
2023-04-15T12:44:36.517Z,100159.97
2023-04-15T12:47:04.477Z,100161.72
2023-04-15T12:49:32.970Z,100166.16
2023-04-15T12:52:02.475Z,100173.25
2023-04-15T12:54:31.017Z,100179.41
2023-04-15T12:56:59.565Z,100184.72
2023-04-15T12:59:27.470Z,100180.28
2023-04-15T13:02:00.869Z,100191.78
2023-04-15T13:04:30.755Z,100182.03
2023-04-15T13:06:58.976Z,100183.81
2023-04-15T13:09:27.126Z,100188.22
2023-04-15T13:11:55.342Z,100192.63
2023-04-15T13:14:23.356Z,100194.38
2023-04-15T13:16:52.012Z,100201.47
2023-04-15T13:19:21.340Z,100199.72
2023-04-15T13:21:49.322Z,100203.25
2023-04-15T13:24:17.803Z,100200.59
2023-04-15T13:26:45.523Z,100212.09
2023-04-15T13:29:14.182Z,100212.09
2023-04-15T13:31:42.016Z,100215.66
2023-04-15T13:34:09.794Z,100217.41
2023-04-15T13:36:39.025Z,100217.38
2023-04-15T13:39:06.858Z,100213.00
2023-04-15T13:41:34.640Z,100222.69
2023-04-15T13:44:02.942Z,100228.91
2023-04-15T13:46:31.001Z,100229.78
2023-04-15T13:48:58.889Z,100229.78
2023-04-15T13:51:27.066Z,100236.88
2023-04-15T13:53:56.795Z,100235.97
2023-04-15T13:56:25.031Z,100235.97
2023-04-15T13:58:55.090Z,100237.72
2023-04-15T14:01:23.266Z,100241.25
2023-04-15T14:03:51.324Z,100245.69
2023-04-15T14:06:19.348Z,100238.59
2023-04-15T14:08:47.139Z,100238.59
2023-04-15T14:11:16.282Z,100240.31
2023-04-15T14:13:44.122Z,100249.16
2023-04-15T14:16:11.923Z,100249.13
2023-04-15T14:18:39.831Z,100256.19
2023-04-15T14:21:07.852Z,100259.69
2023-04-15T14:23:35.686Z,100257.91
2023-04-15T14:26:03.694Z,100264.97
2023-04-15T14:28:33.229Z,100272.94
2023-04-15T14:31:01.217Z,100269.34
2023-04-15T14:33:29.006Z,100272.00
2023-04-15T14:35:57.106Z,100271.13
2023-04-15T14:38:24.826Z,100272.84
2023-04-15T14:40:52.583Z,100274.63
2023-04-15T14:43:20.325Z,100276.34
2023-04-15T14:45:49.457Z,100275.44
2023-04-15T14:48:17.673Z,100284.28
2023-04-15T14:50:45.610Z,100285.13
2023-04-15T14:53:13.464Z,100294.81
2023-04-15T14:55:42.123Z,100292.16
2023-04-15T14:58:09.899Z,100299.25
2023-04-15T15:00:40.397Z,100294.81
2023-04-15T15:03:12.980Z,100298.34
2023-04-15T15:05:41.506Z,100299.25
2023-04-15T15:08:10.657Z,100312.50
2023-04-15T15:10:48.205Z,100318.69
2023-04-15T15:13:18.015Z,100318.69
2023-04-15T15:15:46.071Z,100318.69
2023-04-15T15:18:16.187Z,100318.69
2023-04-15T15:20:43.947Z,100324.03
2023-04-15T15:23:11.771Z,100324.03
2023-04-15T15:25:39.727Z,100328.47
2023-04-15T15:28:09.734Z,100327.59
2023-04-15T15:30:40.066Z,100332.03
2023-04-15T15:33:07.981Z,100336.44
2023-04-15T15:35:37.355Z,100336.44
2023-04-15T15:38:05.399Z,100334.72
2023-04-15T15:40:33.159Z,100341.81
2023-04-15T15:43:00.995Z,100340.03
2023-04-15T15:45:29.010Z,100342.69
2023-04-15T15:47:58.896Z,100351.50
2023-04-15T15:50:27.249Z,100353.28
2023-04-15T15:52:56.508Z,100352.44
2023-04-15T15:55:25.979Z,100352.44
2023-04-15T15:57:54.440Z,100359.53
2023-04-15T16:00:23.249Z,100369.28
2023-04-15T16:03:06.228Z,100363.97
2023-04-15T16:05:35.116Z,100371.94
2023-04-15T16:08:04.391Z,100374.63
2023-04-15T16:10:32.655Z,100379.91
2023-04-15T16:13:00.850Z,100375.53
2023-04-15T16:15:29.329Z,100381.72
2023-04-15T16:17:57.518Z,100382.59
2023-04-15T16:20:26.815Z,100380.84
2023-04-15T16:22:54.798Z,100388.81
2023-04-15T16:25:24.209Z,100390.59
2023-04-15T16:28:03.068Z,100399.44
2023-04-15T16:30:37.514Z,100393.25
2023-04-15T16:33:09.214Z,100390.59
2023-04-15T16:35:37.308Z,100394.13
2023-04-15T16:38:05.190Z,100398.56
2023-04-15T16:40:35.885Z,100393.25
2023-04-15T16:43:04.165Z,100395.91
2023-04-15T16:45:31.976Z,100399.44
2023-04-15T16:47:59.754Z,100395.06
2023-04-15T16:50:27.478Z,100397.69
2023-04-15T16:52:55.741Z,100407.44
2023-04-15T16:55:26.507Z,100400.34
2023-04-15T16:58:03.277Z,100405.66
2023-04-15T17:00:32.880Z,100413.63
2023-04-15T17:03:01.542Z,100418.94
2023-04-15T17:05:30.663Z,100422.50
2023-04-15T17:07:58.646Z,100424.25
2023-04-15T17:10:26.662Z,100423.38
2023-04-15T17:12:57.068Z,100436.63
2023-04-15T17:15:25.301Z,100433.09
2023-04-15T17:17:53.766Z,100448.13
2023-04-15T17:20:21.800Z,100443.72
2023-04-15T17:22:49.973Z,100445.50
2023-04-15T17:25:18.002Z,100446.38
2023-04-15T17:27:45.640Z,100457.84
2023-04-15T17:30:14.949Z,100455.19
2023-04-15T17:32:42.752Z,100457.88
2023-04-15T17:35:11.197Z,100460.53
2023-04-15T17:37:39.225Z,100469.34
2023-04-15T17:40:09.014Z,100467.59
2023-04-15T17:42:36.852Z,100473.78
2023-04-15T17:45:04.996Z,100477.31
2023-04-15T17:47:34.142Z,100475.56
2023-04-15T17:50:01.963Z,100484.41
2023-04-15T17:52:29.653Z,100487.03
2023-04-15T17:54:57.343Z,100492.34
2023-04-15T17:57:25.322Z,100492.38
2023-04-15T17:59:53.129Z,100499.44
2023-04-15T18:02:21.112Z,100502.97
2023-04-15T18:04:50.476Z,100504.75
2023-04-15T18:07:18.283Z,100511.81
2023-04-15T18:09:46.230Z,100511.81
2023-04-15T18:12:13.918Z,100511.81
2023-04-15T18:14:41.589Z,100512.69
2023-04-15T18:17:09.481Z,100521.53
2023-04-15T18:19:37.197Z,100528.59
2023-04-15T18:22:06.241Z,100534.81
2023-04-15T18:24:34.045Z,100533.03
2023-04-15T18:27:01.907Z,100533.91
2023-04-15T18:29:31.179Z,100551.56
2023-04-15T18:32:00.167Z,100547.16
2023-04-15T18:34:28.022Z,100548.94
2023-04-15T18:36:56.856Z,100554.22
2023-04-15T18:39:26.868Z,100554.22
2023-04-15T18:41:54.831Z,100555.09
2023-04-15T18:44:22.625Z,100565.69
2023-04-15T18:46:50.536Z,100563.06
2023-04-15T18:49:18.564Z,100565.69
2023-04-15T18:51:46.425Z,100563.94
2023-04-15T18:54:14.139Z,100571.91
2023-04-15T18:56:43.193Z,100578.06
2023-04-15T18:59:28.739Z,100574.53
2023-04-15T19:01:57.654Z,100572.75
2023-04-15T19:04:25.443Z,100585.13
2023-04-15T19:06:53.169Z,100593.09
2023-04-15T19:09:20.950Z,100592.19
2023-04-15T19:11:49.932Z,100587.78
2023-04-15T19:14:18.262Z,100591.31
2023-04-15T19:16:46.010Z,100594.84
2023-04-15T19:19:14.613Z,100593.94
2023-04-15T19:21:42.607Z,100599.25
2023-04-15T19:24:11.095Z,100607.19
2023-04-15T19:26:38.813Z,100602.78
2023-04-15T19:29:08.015Z,100608.97
2023-04-15T19:31:35.729Z,100616.03
2023-04-15T19:34:03.424Z,100612.47
2023-04-15T19:36:32.338Z,100613.38
2023-04-15T19:39:00.426Z,100619.56
2023-04-15T19:41:28.211Z,100616.91
2023-04-15T19:43:56.015Z,100614.25
2023-04-15T19:46:25.123Z,100626.63
2023-04-15T19:48:53.206Z,100628.41
2023-04-15T19:51:20.866Z,100624.84
2023-04-15T19:53:49.559Z,100627.50
2023-04-15T19:56:17.707Z,100621.31
2023-04-15T19:58:46.970Z,100622.19
2023-04-15T20:01:14.860Z,100622.19
2023-04-15T20:03:44.078Z,100618.66
2023-04-15T20:06:12.337Z,100624.84
2023-04-15T20:08:39.977Z,100627.47
2023-04-15T20:11:07.824Z,100623.09
2023-04-15T20:13:35.591Z,100626.59
2023-04-15T20:16:03.565Z,100630.16
2023-04-15T20:18:31.334Z,100629.25
2023-04-15T20:21:00.730Z,100631.91
2023-04-15T20:23:28.464Z,100636.31
2023-04-15T20:25:56.649Z,100637.19
2023-04-15T20:28:27.399Z,100643.38
2023-04-15T20:30:55.314Z,100637.19
2023-04-15T20:33:24.795Z,100644.25
2023-04-15T20:35:52.608Z,100646.91
2023-04-15T20:38:21.904Z,100638.09
2023-04-15T20:40:50.697Z,100640.72
2023-04-15T20:43:21.481Z,100645.16
2023-04-15T20:45:50.650Z,100646.88
2023-04-15T20:48:19.217Z,100643.38
2023-04-15T20:50:46.921Z,100644.25
2023-04-15T20:53:14.746Z,100652.19
2023-04-15T20:55:44.557Z,100641.59
2023-04-15T20:58:12.423Z,100646.00
2023-04-15T21:00:40.163Z,100645.13
2023-04-15T21:03:08.015Z,100656.59
2023-04-15T21:05:35.851Z,100652.19
2023-04-15T21:08:03.689Z,100646.00
2023-04-15T21:10:35.123Z,100646.88
2023-04-15T21:13:04.268Z,100660.13
2023-04-15T21:15:31.999Z,100656.59
2023-04-15T21:17:59.849Z,100665.41
2023-04-15T21:20:28.030Z,100661.03
2023-04-15T21:22:55.817Z,100668.06
2023-04-15T21:25:23.679Z,100672.50
2023-04-15T21:27:51.395Z,100670.72
2023-04-15T21:30:20.733Z,100674.28
2023-04-15T21:32:48.705Z,100680.44
2023-04-15T21:35:16.761Z,100682.22
2023-04-15T21:37:44.526Z,100679.56
2023-04-15T21:40:13.390Z,100684.88
2023-04-15T21:42:41.783Z,100690.16
2023-04-15T21:45:10.236Z,100691.03
2023-04-15T21:48:05.454Z,100694.56
2023-04-15T21:50:27.409Z,100697.19
2023-04-15T21:52:55.442Z,100700.75
2023-04-15T21:55:23.298Z,100702.50
2023-04-15T21:57:50.975Z,100701.63
2023-04-15T22:00:18.886Z,100714.00
2023-04-15T22:02:48.157Z,100708.72
2023-04-15T22:05:15.847Z,100711.34
2023-04-15T22:07:43.928Z,100717.53
2023-04-15T22:10:12.087Z,100720.16
2023-04-15T22:12:41.704Z,100716.63
2023-04-15T22:15:10.388Z,100719.28
2023-04-15T22:17:38.295Z,100729.88
2023-04-15T22:20:09.125Z,100723.72
2023-04-15T22:22:43.608Z,100725.47
2023-04-15T22:25:12.658Z,100727.22
2023-04-15T22:27:40.416Z,100741.34
2023-04-15T22:30:09.367Z,100730.75
2023-04-15T22:32:37.353Z,100737.81
2023-04-15T22:35:07.212Z,100738.69
2023-04-15T22:37:34.989Z,100746.63
2023-04-15T22:40:03.126Z,100750.19
2023-04-15T22:42:30.844Z,100751.06
2023-04-15T22:44:58.491Z,100753.69
2023-04-15T22:47:26.382Z,100746.63
2023-04-15T22:49:54.152Z,100755.47
2023-04-15T22:52:30.008Z,100762.50
2023-04-15T22:54:58.504Z,100759.88
2023-04-15T22:57:27.876Z,100762.53
2023-04-15T22:59:56.091Z,100764.28
2023-04-15T23:02:24.062Z,100758.09
2023-04-15T23:04:51.989Z,100767.81
2023-04-15T23:07:19.707Z,100767.81
2023-04-15T23:09:50.051Z,100775.75
2023-04-15T23:12:17.788Z,100767.81
2023-04-15T23:14:45.498Z,100772.22
2023-04-15T23:17:13.112Z,100775.72
2023-04-15T23:19:40.771Z,100772.22
2023-04-15T23:22:10.621Z,100770.44
2023-04-15T23:24:38.610Z,100774.84
2023-04-15T23:27:07.634Z,100786.31
2023-04-15T23:29:35.292Z,100781.88
2023-04-15T23:32:03.099Z,100773.06
2023-04-15T23:34:30.809Z,100776.59
2023-04-15T23:36:58.568Z,100781.00
2023-04-15T23:39:26.518Z,100788.06
2023-04-15T23:41:54.661Z,100785.44
2023-04-15T23:44:23.808Z,100781.91
2023-04-15T23:46:51.504Z,100791.59
2023-04-15T23:49:20.522Z,100782.75
2023-04-15T23:51:50.108Z,100793.34
2023-04-15T23:54:18.415Z,100791.56
2023-04-15T23:56:46.177Z,100791.56
2023-04-15T23:59:13.949Z,100796.84
